Time;durP1;ratioP1;P1;durP2;ratioP2;P2;SDS_P1;SDS_P2;PMS_P1;PMS_P2;Temp;Humidity;BMP_temperature;BMP_pressure;BME280_temperature;BME280_humidity;BME280_pressure;Samples;Min_cycle;Max_cycle;Signal;HPM_P1;HPM_P2
2023/06/04 00:02:25;;;;;;;9.75;3.40;;;;;;;;;;5043058;28;20063;-71
2023/06/04 00:04:51;;;;;;;6.15;2.53;;;;;;;;;;5040323;28;20028;-71
2023/06/04 00:07:17;;;;;;;9.43;3.28;;;;;;;;;;5044572;28;20111;-71
2023/06/04 00:09:46;;;;;;;8.02;3.33;;;;;;;;;;5044709;28;20029;-71
2023/06/04 00:12:12;;;;;;;7.38;2.90;;;;;;;;;;5044281;28;20498;-71
2023/06/04 00:14:38;;;;;;;11.63;2.75;;;;;;;;;;5041474;28;20052;-71
2023/06/04 00:17:04;;;;;;;10.52;2.90;;;;;;;;;;5044395;28;20470;-71
2023/06/04 00:19:30;;;;;;;12.95;3.22;;;;;;;;;;5042036;28;20033;-71
2023/06/04 00:21:56;;;;;;;9.35;3.13;;;;;;;;;;5041579;28;20052;-71
2023/06/04 00:24:22;;;;;;;12.23;3.42;;;;;;;;;;5041467;28;20482;-70
2023/06/04 00:26:48;;;;;;;8.07;2.90;;;;;;;;;;5043948;28;20380;-70
2023/06/04 00:29:15;;;;;;;5.95;2.58;;;;;;;;;;5044149;28;20034;-70
2023/06/04 00:31:41;;;;;;;12.95;4.03;;;;;;;;;;5042804;28;20045;-70
2023/06/04 00:34:07;;;;;;;10.98;3.97;;;;;;;;;;5040616;28;20129;-70
2023/06/04 00:36:33;;;;;;;7.63;2.90;;;;;;;;;;5039766;28;20040;-70
2023/06/04 00:38:59;;;;;;;10.48;2.72;;;;;;;;;;5042132;28;20025;-70
2023/06/04 00:41:26;;;;;;;10.40;3.55;;;;;;;;;;5040885;28;20083;-70
2023/06/04 00:44:01;;;;;;;10.07;2.95;;;;;;;;;;5043474;28;20044;-70
2023/06/04 00:46:28;;;;;;;7.07;3.00;;;;;;;;;;5043153;28;20529;-70
2023/06/04 00:48:54;;;;;;;13.65;3.72;;;;;;;;;;5043823;28;20386;-70
2023/06/04 00:51:21;;;;;;;13.35;3.95;;;;;;;;;;5042418;28;20053;-70
2023/06/04 00:53:47;;;;;;;7.55;3.03;;;;;;;;;;5044170;28;20036;-70
2023/06/04 00:56:14;;;;;;;11.35;3.35;;;;;;;;;;5042214;28;20223;-70
2023/06/04 00:58:40;;;;;;;10.88;3.28;;;;;;;;;;5043280;28;20119;-70
2023/06/04 01:01:11;;;;;;;11.35;2.83;;;;;;;;;;5039739;28;20033;-70
2023/06/04 01:03:39;;;;;;;11.25;3.05;;;;;;;;;;5041046;28;20488;-70
2023/06/04 01:06:13;;;;;;;8.98;3.15;;;;;;;;;;5056446;28;20075;-71
2023/06/04 01:08:43;;;;;;;8.68;3.15;;;;;;;;;;5040506;28;20459;-71
2023/06/04 01:11:09;;;;;;;8.43;2.88;;;;;;;;;;5038566;28;20075;-70
2023/06/04 01:13:35;;;;;;;8.45;3.25;;;;;;;;;;5043002;28;20401;-70
2023/06/04 01:16:01;;;;;;;9.07;2.53;;;;;;;;;;5042549;28;20033;-70
2023/06/04 01:18:28;;;;;;;11.35;3.83;;;;;;;;;;5041895;28;21168;-70
2023/06/04 01:21:09;;;;;;;8.20;3.08;;;;;;;;;;5041762;28;20049;-70
2023/06/04 01:23:58;;;;;;;11.75;2.90;;;;;;;;;;5040374;28;20585;-70
2023/06/04 01:26:33;;;;;;;8.75;3.10;;;;;;;;;;5041909;28;20033;-71
2023/06/04 01:29:01;;;;;;;7.15;3.00;;;;;;;;;;5055058;28;20033;-70
2023/06/04 01:31:28;;;;;;;8.55;4.00;;;;;;;;;;5040811;28;20032;-70
2023/06/04 01:33:55;;;;;;;10.95;2.75;;;;;;;;;;5057935;28;20072;-70
2023/06/04 01:36:22;;;;;;;7.38;3.33;;;;;;;;;;5039369;28;21732;-70
2023/06/04 01:38:48;;;;;;;7.10;3.50;;;;;;;;;;5042376;28;20033;-70
2023/06/04 01:41:15;;;;;;;8.77;3.33;;;;;;;;;;5039428;28;20029;-71
2023/06/04 01:43:41;;;;;;;10.02;3.25;;;;;;;;;;5041592;28;20029;-70
2023/06/04 01:46:07;;;;;;;12.45;3.80;;;;;;;;;;5041840;28;20437;-70
2023/06/04 01:48:33;;;;;;;9.35;2.90;;;;;;;;;;5036039;28;20040;-70
2023/06/04 01:51:00;;;;;;;9.98;3.10;;;;;;;;;;5042740;28;20087;-70
2023/06/04 01:53:26;;;;;;;8.20;3.20;;;;;;;;;;5040349;28;20445;-70
2023/06/04 01:55:52;;;;;;;9.63;3.00;;;;;;;;;;5040940;28;20071;-70
2023/06/04 01:58:22;;;;;;;9.25;3.63;;;;;;;;;;5039953;28;20041;-70
2023/06/04 02:00:49;;;;;;;11.60;3.78;;;;;;;;;;5036887;28;20036;-70
2023/06/04 02:03:15;;;;;;;8.43;3.22;;;;;;;;;;5044127;28;20445;-70
2023/06/04 02:05:44;;;;;;;8.75;3.00;;;;;;;;;;5042605;28;20029;-70
2023/06/04 02:08:11;;;;;;;10.85;3.65;;;;;;;;;;5042672;28;20031;-71
2023/06/04 02:10:37;;;;;;;7.10;3.30;;;;;;;;;;5042314;28;20029;-71
2023/06/04 02:13:03;;;;;;;7.47;2.83;;;;;;;;;;5040044;28;20505;-71
2023/06/04 02:15:30;;;;;;;11.55;4.47;;;;;;;;;;5035769;28;20033;-70
2023/06/04 02:18:02;;;;;;;8.80;2.85;;;;;;;;;;5042266;28;20462;-70
2023/06/04 02:20:28;;;;;;;8.43;3.03;;;;;;;;;;5040829;28;20031;-70
2023/06/04 02:22:57;;;;;;;7.93;3.40;;;;;;;;;;5042225;28;20037;-70
2023/06/04 02:25:24;;;;;;;6.85;2.58;;;;;;;;;;5040808;28;20483;-70
2023/06/04 02:27:50;;;;;;;9.55;2.67;;;;;;;;;;5040354;28;20437;-70
2023/06/04 02:30:16;;;;;;;7.22;3.13;;;;;;;;;;5040895;28;20102;-70
2023/06/04 02:32:44;;;;;;;5.38;2.72;;;;;;;;;;5040798;28;20041;-70
2023/06/04 02:35:10;;;;;;;9.98;3.10;;;;;;;;;;5042545;28;20081;-70
2023/06/04 02:37:36;;;;;;;13.57;3.08;;;;;;;;;;5039332;28;20056;-70
2023/06/04 02:40:04;;;;;;;9.25;3.20;;;;;;;;;;5032358;28;20041;-70
2023/06/04 02:42:29;;;;;;;9.95;3.30;;;;;;;;;;5041320;28;20102;-70
2023/06/04 02:44:55;;;;;;;7.70;3.17;;;;;;;;;;5038348;28;20421;-70
2023/06/04 02:47:21;;;;;;;7.70;3.10;;;;;;;;;;5041372;28;20091;-71
2023/06/04 02:49:47;;;;;;;7.43;3.67;;;;;;;;;;5040764;28;20131;-71
2023/06/04 02:52:14;;;;;;;9.00;3.30;;;;;;;;;;5040973;28;20506;-71
2023/06/04 02:54:40;;;;;;;9.52;3.58;;;;;;;;;;5024092;28;20510;-71
2023/06/04 02:57:06;;;;;;;6.47;3.10;;;;;;;;;;5039183;28;20058;-71
2023/06/04 02:59:32;;;;;;;6.85;2.97;;;;;;;;;;5043322;28;20044;-70
2023/06/04 03:01:58;;;;;;;10.43;3.53;;;;;;;;;;5041332;28;20037;-70
2023/06/04 03:04:24;;;;;;;10.65;3.88;;;;;;;;;;5044005;28;20487;-71
2023/06/04 03:06:57;;;;;;;8.75;3.00;;;;;;;;;;5042687;28;20125;-71
2023/06/04 03:09:22;;;;;;;12.07;4.30;;;;;;;;;;5042344;28;20037;-71
2023/06/04 03:11:48;;;;;;;7.07;2.95;;;;;;;;;;5047621;28;20524;-72
2023/06/04 03:14:16;;;;;;;12.27;4.20;;;;;;;;;;5049502;28;20065;-73
2023/06/04 03:16:42;;;;;;;9.52;3.47;;;;;;;;;;5041987;28;20051;-73
2023/06/04 03:19:08;;;;;;;8.80;3.22;;;;;;;;;;5034245;28;20032;-71
2023/06/04 03:21:34;;;;;;;22.60;7.28;;;;;;;;;;5035031;28;20067;-72
2023/06/04 03:24:00;;;;;;;22.67;10.68;;;;;;;;;;5036349;28;20038;-72
2023/06/04 03:26:27;;;;;;;28.95;15.85;;;;;;;;;;5041195;28;20039;-73
2023/06/04 03:28:53;;;;;;;11.63;5.07;;;;;;;;;;5049713;28;20036;-71
2023/06/04 03:31:19;;;;;;;8.27;3.20;;;;;;;;;;5051700;28;20565;-71
2023/06/04 03:33:45;;;;;;;8.80;2.83;;;;;;;;;;5046230;28;20462;-71
2023/06/04 03:36:11;;;;;;;6.70;3.65;;;;;;;;;;5039482;28;20045;-72
2023/06/04 03:38:37;;;;;;;10.70;4.05;;;;;;;;;;5037205;28;20043;-71
2023/06/04 03:41:03;;;;;;;7.32;3.08;;;;;;;;;;5050000;28;20096;-71
2023/06/04 03:43:29;;;;;;;10.07;3.80;;;;;;;;;;5049205;28;20039;-72
2023/06/04 03:45:55;;;;;;;10.07;3.25;;;;;;;;;;5047664;28;20482;-71
2023/06/04 03:48:21;;;;;;;7.85;3.17;;;;;;;;;;5040157;28;20033;-70
2023/06/04 03:50:49;;;;;;;11.02;3.72;;;;;;;;;;5046146;28;20033;-73
2023/06/04 03:53:15;;;;;;;8.02;3.20;;;;;;;;;;5042079;28;20195;-72
2023/06/04 03:55:41;;;;;;;6.68;3.67;;;;;;;;;;5041006;28;20538;-73
2023/06/04 03:58:09;;;;;;;5.28;3.10;;;;;;;;;;5043859;28;20429;-74
2023/06/04 04:00:35;;;;;;;5.93;3.80;;;;;;;;;;5039990;28;20596;-75
2023/06/04 04:03:01;;;;;;;12.48;3.90;;;;;;;;;;5045225;28;20393;-74
2023/06/04 04:05:28;;;;;;;15.80;7.15;;;;;;;;;;5038935;28;20036;-74
2023/06/04 04:07:54;;;;;;;20.00;7.30;;;;;;;;;;5050665;28;20043;-74
2023/06/04 04:10:20;;;;;;;14.13;5.63;;;;;;;;;;5034837;28;20111;-72
2023/06/04 04:12:46;;;;;;;11.30;5.13;;;;;;;;;;5045055;28;20075;-74
2023/06/04 04:15:13;;;;;;;18.38;3.72;;;;;;;;;;5042917;28;20087;-73
2023/06/04 04:17:39;;;;;;;8.45;3.70;;;;;;;;;;5043087;28;20470;-74
2023/06/04 04:20:05;;;;;;;9.90;3.55;;;;;;;;;;5042721;28;20021;-71
2023/06/04 04:22:32;;;;;;;8.93;4.03;;;;;;;;;;5045242;28;20053;-71
2023/06/04 04:24:58;;;;;;;15.23;4.13;;;;;;;;;;5040844;28;20032;-73
2023/06/04 04:27:25;;;;;;;12.38;4.25;;;;;;;;;;5042418;28;20532;-71
2023/06/04 04:29:55;;;;;;;14.77;3.80;;;;;;;;;;5040446;28;20451;-72
2023/06/04 04:32:22;;;;;;;12.40;4.32;;;;;;;;;;5042114;28;20087;-73
2023/06/04 04:34:52;;;;;;;11.40;4.60;;;;;;;;;;5041591;28;20099;-72
2023/06/04 04:37:20;;;;;;;9.13;4.32;;;;;;;;;;5042298;28;20082;-72
2023/06/04 04:39:47;;;;;;;14.30;4.40;;;;;;;;;;5041261;28;20425;-72
2023/06/04 04:42:13;;;;;;;13.57;4.80;;;;;;;;;;5039188;28;20041;-73
2023/06/04 04:44:39;;;;;;;11.52;4.72;;;;;;;;;;5043189;28;20514;-73
2023/06/04 04:47:05;;;;;;;23.27;10.57;;;;;;;;;;5041168;28;20462;-72
2023/06/04 04:49:31;;;;;;;18.17;8.48;;;;;;;;;;5041864;28;20048;-72
2023/06/04 04:51:57;;;;;;;14.43;5.70;;;;;;;;;;5040695;28;20131;-72
2023/06/04 04:54:23;;;;;;;9.88;4.80;;;;;;;;;;5040258;28;20040;-71
2023/06/04 04:56:49;;;;;;;11.00;4.93;;;;;;;;;;5043002;28;20083;-71
2023/06/04 04:59:18;;;;;;;8.45;3.75;;;;;;;;;;5040021;28;20029;-72
2023/06/04 05:01:44;;;;;;;10.93;5.55;;;;;;;;;;5050418;28;20083;-72
2023/06/04 05:04:10;;;;;;;13.02;5.70;;;;;;;;;;5047522;28;20031;-72
2023/06/04 05:06:36;;;;;;;12.50;4.95;;;;;;;;;;5036785;28;20033;-72
2023/06/04 05:09:02;;;;;;;10.73;5.15;;;;;;;;;;5047600;28;20033;-72
2023/06/04 05:11:28;;;;;;;15.70;5.38;;;;;;;;;;5039749;28;20025;-72
2023/06/04 05:13:54;;;;;;;14.98;6.07;;;;;;;;;;5043602;28;20115;-71
2023/06/04 05:16:20;;;;;;;12.60;5.13;;;;;;;;;;5037717;28;20510;-72
2023/06/04 05:18:46;;;;;;;9.18;4.72;;;;;;;;;;5038775;28;20092;-71
2023/06/04 05:21:12;;;;;;;10.20;5.00;;;;;;;;;;5042864;28;20043;-71
2023/06/04 05:23:39;;;;;;;10.75;4.57;;;;;;;;;;5038259;28;20029;-71
2023/06/04 05:26:06;;;;;;;11.38;5.32;;;;;;;;;;5037002;28;20033;-71
2023/06/04 05:28:33;;;;;;;15.40;5.22;;;;;;;;;;5042569;28;20060;-71
2023/06/04 05:30:59;;;;;;;7.35;4.15;;;;;;;;;;5040693;28;20116;-71
2023/06/04 05:33:30;;;;;;;9.85;4.28;;;;;;;;;;5041339;28;20041;-71
2023/06/04 05:35:57;;;;;;;14.63;5.05;;;;;;;;;;5044135;28;20027;-72
2023/06/04 05:38:26;;;;;;;16.63;6.60;;;;;;;;;;5042394;28;20029;-71
2023/06/04 05:40:52;;;;;;;11.30;4.80;;;;;;;;;;5040441;28;20067;-71
2023/06/04 05:43:18;;;;;;;14.40;5.95;;;;;;;;;;5044886;28;20418;-71
2023/06/04 05:45:45;;;;;;;9.60;6.03;;;;;;;;;;5038753;28;20533;-72
2023/06/04 05:48:11;;;;;;;13.93;6.30;;;;;;;;;;5042871;28;20073;-71
2023/06/04 05:50:37;;;;;;;13.68;5.35;;;;;;;;;;5030639;28;20064;-72
2023/06/04 05:53:03;;;;;;;13.40;5.05;;;;;;;;;;5044491;28;20060;-72
2023/06/04 05:55:29;;;;;;;12.95;5.00;;;;;;;;;;5041890;28;20047;-71
2023/06/04 05:57:56;;;;;;;18.55;5.07;;;;;;;;;;5040166;28;20064;-72
2023/06/04 06:00:22;;;;;;;10.70;5.18;;;;;;;;;;5046653;28;20025;-72
2023/06/04 06:02:49;;;;;;;11.07;4.32;;;;;;;;;;5041940;28;20052;-72
2023/06/04 06:05:16;;;;;;;9.40;4.50;;;;;;;;;;5035190;28;20033;-72
2023/06/04 06:07:42;;;;;;;8.85;4.40;;;;;;;;;;5036622;28;20045;-71
2023/06/04 06:10:08;;;;;;;14.45;5.32;;;;;;;;;;5053181;28;20052;-72
2023/06/04 06:12:34;;;;;;;17.17;4.03;;;;;;;;;;5038969;28;20040;-72
2023/06/04 06:15:00;;;;;;;15.05;4.85;;;;;;;;;;5048986;28;20037;-72
2023/06/04 06:17:27;;;;;;;11.98;4.75;;;;;;;;;;5055262;28;20032;-71
2023/06/04 06:19:53;;;;;;;11.90;4.65;;;;;;;;;;5047656;28;20497;-71
2023/06/04 06:22:19;;;;;;;9.82;4.80;;;;;;;;;;5050697;28;20142;-72
2023/06/04 06:24:48;;;;;;;13.75;4.45;;;;;;;;;;5050089;28;20025;-72
2023/06/04 06:27:15;;;;;;;15.20;3.83;;;;;;;;;;5050215;28;20028;-72
2023/06/04 06:29:41;;;;;;;14.73;4.47;;;;;;;;;;5050576;28;20052;-72
2023/06/04 06:32:07;;;;;;;10.77;3.55;;;;;;;;;;5050885;28;20021;-72
2023/06/04 06:34:33;;;;;;;9.60;2.60;;;;;;;;;;5038050;28;20063;-72
2023/06/04 06:36:59;;;;;;;9.70;3.40;;;;;;;;;;5041653;28;20478;-72
2023/06/04 06:39:25;;;;;;;11.93;3.40;;;;;;;;;;5048849;28;20043;-72
2023/06/04 06:41:51;;;;;;;11.73;2.60;;;;;;;;;;5047532;28;20025;-71
2023/06/04 06:44:18;;;;;;;11.05;3.38;;;;;;;;;;5044542;28;20025;-72
2023/06/04 06:46:44;;;;;;;12.48;3.85;;;;;;;;;;5042639;28;20075;-71
2023/06/04 06:49:10;;;;;;;13.18;3.28;;;;;;;;;;5046239;28;20037;-72
2023/06/04 06:51:36;;;;;;;9.00;3.00;;;;;;;;;;5035326;28;20116;-72
2023/06/04 06:54:02;;;;;;;11.82;3.10;;;;;;;;;;5040851;28;20112;-72
2023/06/04 06:56:28;;;;;;;7.18;2.65;;;;;;;;;;5044901;28;20055;-72
2023/06/04 06:58:54;;;;;;;4.90;1.98;;;;;;;;;;5046300;28;20041;-72
2023/06/04 07:01:20;;;;;;;7.07;2.17;;;;;;;;;;5048657;28;20040;-73
2023/06/04 07:03:46;;;;;;;8.45;3.20;;;;;;;;;;5049637;28;20405;-73
2023/06/04 07:06:12;;;;;;;6.05;2.38;;;;;;;;;;5032976;28;20068;-75
2023/06/04 07:08:39;;;;;;;5.88;2.15;;;;;;;;;;5039484;28;20059;-76
2023/06/04 07:11:06;;;;;;;6.82;2.35;;;;;;;;;;5044826;28;20063;-76
2023/06/04 07:13:34;;;;;;;14.60;2.85;;;;;;;;;;5039930;28;20049;-74
2023/06/04 07:16:00;;;;;;;12.50;4.18;;;;;;;;;;5041718;28;20035;-72
2023/06/04 07:18:26;;;;;;;6.90;2.20;;;;;;;;;;5042358;28;20041;-72
2023/06/04 07:20:52;;;;;;;11.70;5.00;;;;;;;;;;5049195;28;20534;-72
2023/06/04 07:23:19;;;;;;;5.20;2.20;;;;;;;;;;5050359;28;20029;-71
2023/06/04 07:25:45;;;;;;;7.13;2.22;;;;;;;;;;5044727;28;20386;-75
2023/06/04 07:28:11;;;;;;;6.95;2.08;;;;;;;;;;5044572;28;20020;-75
2023/06/04 07:30:38;;;;;;;6.47;2.10;;;;;;;;;;5045355;28;20056;-74
2023/06/04 07:33:04;;;;;;;10.00;2.78;;;;;;;;;;5049961;28;20029;-75
2023/06/04 07:35:30;;;;;;;11.90;2.35;;;;;;;;;;5046762;28;20187;-75
2023/06/04 07:37:56;;;;;;;7.75;2.15;;;;;;;;;;5042680;28;20535;-73
2023/06/04 07:40:22;;;;;;;6.53;1.92;;;;;;;;;;5049184;28;20502;-73
2023/06/04 07:42:48;;;;;;;7.22;2.17;;;;;;;;;;5047567;28;20060;-73
2023/06/04 07:45:15;;;;;;;5.13;2.20;;;;;;;;;;5048644;28;20432;-73
2023/06/04 07:47:41;;;;;;;7.45;2.38;;;;;;;;;;5052172;28;20021;-72
2023/06/04 07:50:07;;;;;;;7.80;2.45;;;;;;;;;;5052036;28;20123;-72
2023/06/04 07:52:34;;;;;;;8.13;2.05;;;;;;;;;;5050291;28;20059;-72
2023/06/04 07:55:00;;;;;;;7.38;1.92;;;;;;;;;;5050446;28;20052;-72
2023/06/04 07:57:27;;;;;;;4.40;1.90;;;;;;;;;;5048006;28;20112;-72
2023/06/04 07:59:53;;;;;;;7.40;3.38;;;;;;;;;;5047938;28;20040;-72
2023/06/04 08:02:19;;;;;;;9.95;2.60;;;;;;;;;;5048083;28;20037;-72
2023/06/04 08:04:46;;;;;;;2.97;1.52;;;;;;;;;;5049359;28;20501;-73
2023/06/04 08:07:12;;;;;;;5.00;2.10;;;;;;;;;;5048497;28;20037;-74
2023/06/04 08:09:38;;;;;;;7.70;2.08;;;;;;;;;;5047171;28;20060;-74
2023/06/04 08:12:05;;;;;;;6.18;2.13;;;;;;;;;;5048184;28;20041;-74
2023/06/04 08:14:31;;;;;;;7.18;1.70;;;;;;;;;;5045989;28;20041;-73
2023/06/04 08:16:58;;;;;;;5.05;1.77;;;;;;;;;;5045947;28;20064;-72
2023/06/04 08:19:24;;;;;;;7.10;3.80;;;;;;;;;;5044287;28;20033;-73
2023/06/04 08:21:50;;;;;;;9.18;1.98;;;;;;;;;;5044292;28;20040;-73
2023/06/04 08:24:16;;;;;;;7.78;1.80;;;;;;;;;;5043430;28;20040;-75
2023/06/04 08:26:42;;;;;;;7.47;1.88;;;;;;;;;;5043774;28;20343;-72
2023/06/04 08:29:08;;;;;;;4.88;1.80;;;;;;;;;;5039238;28;20069;-71
2023/06/04 08:31:34;;;;;;;8.45;1.90;;;;;;;;;;5046892;28;20067;-71
2023/06/04 08:34:00;;;;;;;6.72;2.10;;;;;;;;;;5052390;28;20033;-71
2023/06/04 08:36:27;;;;;;;5.50;1.73;;;;;;;;;;5052162;28;20394;-70
2023/06/04 08:38:54;;;;;;;5.78;1.88;;;;;;;;;;5051929;28;20053;-70
2023/06/04 08:41:30;;;;;;;4.03;1.50;;;;;;;;;;5052782;28;20029;-70
2023/06/04 08:44:01;;;;;;;5.97;1.75;;;;;;;;;;5049509;28;20049;-70
2023/06/04 08:46:27;;;;;;;4.57;1.48;;;;;;;;;;5051650;28;20502;-72
2023/06/04 08:48:55;;;;;;;5.78;1.77;;;;;;;;;;5050148;28;20064;-70
2023/06/04 08:51:22;;;;;;;5.97;1.58;;;;;;;;;;5043429;28;20052;-69
2023/06/04 08:53:53;;;;;;;5.82;1.55;;;;;;;;;;5052618;28;20055;-68
2023/06/04 08:56:22;;;;;;;5.30;1.27;;;;;;;;;;5051807;28;20075;-69
2023/06/04 08:58:48;;;;;;;3.50;1.70;;;;;;;;;;5051961;28;20694;-71
2023/06/04 09:01:14;;;;;;;4.60;1.83;;;;;;;;;;5051373;28;20040;-72
2023/06/04 09:03:41;;;;;;;3.22;1.52;;;;;;;;;;5048988;28;20090;-72
2023/06/04 09:06:08;;;;;;;6.25;1.65;;;;;;;;;;5050478;28;20025;-72
2023/06/04 09:08:37;;;;;;;3.25;1.33;;;;;;;;;;5051608;28;20158;-72
2023/06/04 09:11:08;;;;;;;2.95;1.50;;;;;;;;;;5051803;28;20029;-71
2023/06/04 09:13:35;;;;;;;4.33;1.30;;;;;;;;;;5049702;28;20036;-71
2023/06/04 09:16:02;;;;;;;5.95;1.48;;;;;;;;;;5038796;28;20033;-71
2023/06/04 09:18:28;;;;;;;3.20;1.35;;;;;;;;;;5045434;28;20037;-71
2023/06/04 09:21:03;;;;;;;3.33;1.35;;;;;;;;;;5052231;28;20021;-71
2023/06/04 09:23:30;;;;;;;6.35;1.27;;;;;;;;;;5049494;28;20371;-71
2023/06/04 09:25:56;;;;;;;3.72;1.63;;;;;;;;;;5052093;28;20087;-71
2023/06/04 09:28:22;;;;;;;4.43;1.40;;;;;;;;;;5050686;28;20453;-71
2023/06/04 09:30:52;;;;;;;3.38;1.52;;;;;;;;;;5050763;28;20037;-73
2023/06/04 09:33:18;;;;;;;6.53;1.55;;;;;;;;;;5050962;28;20155;-70
2023/06/04 09:35:54;;;;;;;4.47;1.70;;;;;;;;;;5051603;28;20057;-70
2023/06/04 09:38:20;;;;;;;4.18;1.33;;;;;;;;;;5050218;28;20033;-71
2023/06/04 09:40:47;;;;;;;4.20;1.60;;;;;;;;;;5048858;28;20045;-71
2023/06/04 09:43:22;;;;;;;3.78;1.77;;;;;;;;;;5058664;28;20039;-71
2023/06/04 09:45:48;;;;;;;5.15;1.40;;;;;;;;;;5051530;28;20032;-71
2023/06/04 09:48:23;;;;;;;6.25;1.83;;;;;;;;;;5051869;28;20029;-71
2023/06/04 09:50:49;;;;;;;5.00;1.60;;;;;;;;;;5041624;28;20027;-71
2023/06/04 09:53:22;;;;;;;5.40;2.05;;;;;;;;;;5038486;28;20057;-71
2023/06/04 09:55:58;;;;;;;4.47;1.40;;;;;;;;;;5050078;28;20111;-71
2023/06/04 09:58:28;;;;;;;3.13;1.40;;;;;;;;;;5049636;28;20120;-71
2023/06/04 10:00:58;;;;;;;4.50;1.50;;;;;;;;;;5050551;28;20052;-72
2023/06/04 10:03:30;;;;;;;3.42;1.77;;;;;;;;;;5067397;28;20033;-71
2023/06/04 10:05:58;;;;;;;4.22;1.65;;;;;;;;;;5050635;28;20031;-72
2023/06/04 10:08:24;;;;;;;3.33;1.38;;;;;;;;;;5050614;28;20108;-71
2023/06/04 10:10:55;;;;;;;3.58;1.60;;;;;;;;;;5049252;28;20534;-71
2023/06/04 10:13:21;;;;;;;;;;;;;;;;;;5048748;28;20395;-72
2023/06/04 10:15:47;;;;;;;5.32;1.38;;;;;;;;;;5046760;28;19909;-69
2023/06/04 10:18:16;;;;;;;2.85;1.30;;;;;;;;;;5050961;28;20116;-69
2023/06/04 10:20:42;;;;;;;4.13;1.83;;;;;;;;;;5049192;28;20033;-68
2023/06/04 10:23:09;;;;;;;4.90;1.92;;;;;;;;;;5050943;28;20037;-69
2023/06/04 10:25:35;;;;;;;4.05;1.27;;;;;;;;;;5049970;28;20064;-69
2023/06/04 10:28:02;;;;;;;4.03;1.35;;;;;;;;;;5051089;28;20090;-69
2023/06/04 10:30:29;;;;;;;1.55;1.10;;;;;;;;;;5047668;28;20532;-69
2023/06/04 10:32:57;;;;;;;2.78;1.20;;;;;;;;;;5050523;28;20037;-69
2023/06/04 10:35:32;;;;;;;4.38;1.40;;;;;;;;;;5050669;28;20112;-69
2023/06/04 10:38:13;;;;;;;2.40;1.20;;;;;;;;;;5049968;28;20070;-69
2023/06/04 10:40:39;;;;;;;3.95;1.33;;;;;;;;;;5050625;28;20413;-69
2023/06/04 10:43:06;;;;;;;3.58;1.15;;;;;;;;;;5049202;28;20037;-71
2023/06/04 10:45:32;;;;;;;5.57;1.00;;;;;;;;;;5048172;28;20036;-69
2023/06/04 10:48:05;;;;;;;2.30;1.13;;;;;;;;;;5050996;28;20025;-69
2023/06/04 10:50:53;;;;;;;3.47;1.30;;;;;;;;;;5037041;28;20021;-71
2023/06/04 10:53:22;;;;;;;2.70;1.20;;;;;;;;;;5032672;28;20080;-72
2023/06/04 10:55:48;;;;;;;4.03;1.73;;;;;;;;;;5036399;28;20037;-68
2023/06/04 10:58:15;;;;;;;9.93;3.65;;;;;;;;;;5051489;28;20496;-72
2023/06/04 11:00:49;;;;;;;3.80;1.73;;;;;;;;;;5047070;28;20957;-71
2023/06/04 11:03:15;;;;;;;4.90;1.70;;;;;;;;;;5042574;28;20037;-74
2023/06/04 11:05:43;;;;;;;4.03;1.55;;;;;;;;;;5048710;28;20056;-72
2023/06/04 11:08:13;;;;;;;4.45;1.58;;;;;;;;;;5039428;28;20475;-72
2023/06/04 11:10:41;;;;;;;5.03;1.50;;;;;;;;;;5037788;28;20033;-71
2023/06/04 11:13:07;;;;;;;5.28;1.50;;;;;;;;;;5036107;28;20069;-72
2023/06/04 11:15:43;;;;;;;3.58;1.92;;;;;;;;;;5037722;28;20048;-72
2023/06/04 11:18:09;;;;;;;3.97;1.50;;;;;;;;;;5039215;28;20029;-72
2023/06/04 11:20:35;;;;;;;4.25;1.30;;;;;;;;;;5038888;28;20063;-73
2023/06/04 11:23:03;;;;;;;4.32;1.63;;;;;;;;;;5042964;28;20029;-71
2023/06/04 11:25:30;;;;;;;3.97;1.50;;;;;;;;;;5045434;28;20021;-71
2023/06/04 11:27:57;;;;;;;3.05;1.00;;;;;;;;;;5039979;28;20037;-72
2023/06/04 11:30:24;;;;;;;1.95;1.00;;;;;;;;;;5044042;28;20057;-71
2023/06/04 11:32:50;;;;;;;2.78;1.30;;;;;;;;;;5043496;28;20037;-71
2023/06/04 11:35:16;;;;;;;3.08;1.50;;;;;;;;;;5041113;28;20029;-71
2023/06/04 11:37:42;;;;;;;3.15;1.30;;;;;;;;;;5041668;28;20216;-72
2023/06/04 11:40:18;;;;;;;3.65;1.60;;;;;;;;;;5041673;28;20032;-72
2023/06/04 11:42:45;;;;;;;5.10;1.75;;;;;;;;;;5042890;28;20033;-71
2023/06/04 11:45:12;;;;;;;2.70;1.05;;;;;;;;;;5044984;28;20044;-71
2023/06/04 11:47:39;;;;;;;5.05;1.88;;;;;;;;;;5040357;28;20052;-72
2023/06/04 11:50:05;;;;;;;4.78;1.35;;;;;;;;;;5041679;28;20490;-72
2023/06/04 11:52:32;;;;;;;3.35;1.52;;;;;;;;;;5040774;28;20049;-71
2023/06/04 11:54:58;;;;;;;4.00;1.55;;;;;;;;;;5041014;28;20032;-72
2023/06/04 11:57:24;;;;;;;3.75;1.55;;;;;;;;;;5043452;28;20041;-73
2023/06/04 11:59:50;;;;;;;5.22;1.23;;;;;;;;;;5042129;28;20025;-74
2023/06/04 12:02:16;;;;;;;5.45;1.45;;;;;;;;;;5040907;28;20068;-72
2023/06/04 12:04:42;;;;;;;8.63;1.65;;;;;;;;;;5040110;28;20496;-71
2023/06/04 12:07:09;;;;;;;5.53;1.40;;;;;;;;;;5043276;28;20052;-73
2023/06/04 12:09:37;;;;;;;3.05;1.30;;;;;;;;;;5039557;28;20033;-73
2023/06/04 12:12:04;;;;;;;4.43;1.45;;;;;;;;;;5044809;28;20025;-73
2023/06/04 12:14:30;;;;;;;4.15;1.58;;;;;;;;;;5042237;28;20033;-71
2023/06/04 12:17:09;;;;;;;4.15;2.15;;;;;;;;;;5042741;28;20044;-72
2023/06/04 12:19:48;;;;;;;4.35;1.63;;;;;;;;;;5042251;28;20435;-73
2023/06/04 12:22:14;;;;;;;4.95;1.63;;;;;;;;;;5048382;28;20056;-73
2023/06/04 12:24:48;;;;;;;3.80;1.67;;;;;;;;;;5051734;28;20067;-74
2023/06/04 12:27:15;;;;;;;1.60;1.13;;;;;;;;;;5051781;28;20870;-73
2023/06/04 12:29:41;;;;;;;4.07;1.70;;;;;;;;;;5044814;28;20033;-74
2023/06/04 12:32:08;;;;;;;3.00;1.40;;;;;;;;;;5039966;28;20498;-74
2023/06/04 12:34:37;;;;;;;4.93;1.38;;;;;;;;;;5042214;28;20480;-72
2023/06/04 12:37:05;;;;;;;4.18;1.38;;;;;;;;;;5039300;28;20040;-75
2023/06/04 12:39:31;;;;;;;11.93;5.93;;;;;;;;;;5040536;28;20063;-73
2023/06/04 12:41:57;;;;;;;5.47;3.08;;;;;;;;;;5043377;28;20108;-72
2023/06/04 12:44:23;;;;;;;3.05;1.60;;;;;;;;;;5041684;28;20040;-71
2023/06/04 12:46:51;;;;;;;3.67;1.50;;;;;;;;;;5039209;28;20425;-73
2023/06/04 12:49:17;;;;;;;9.10;1.40;;;;;;;;;;5040416;28;20118;-71
2023/06/04 12:51:43;;;;;;;4.03;1.77;;;;;;;;;;5042206;28;20036;-72
2023/06/04 12:54:10;;;;;;;4.68;1.33;;;;;;;;;;5042833;28;20425;-73
2023/06/04 12:56:36;;;;;;;3.75;1.25;;;;;;;;;;5040730;28;20020;-72
2023/06/04 12:59:02;;;;;;;2.90;1.30;;;;;;;;;;5043105;28;20039;-71
2023/06/04 13:01:28;;;;;;;14.20;10.30;;;;;;;;;;5049779;28;20037;-70
2023/06/04 13:03:55;;;;;;;7.03;1.80;;;;;;;;;;5050309;28;20037;-72
2023/06/04 13:06:21;;;;;;;6.10;1.60;;;;;;;;;;5050451;28;20036;-72
2023/06/04 13:08:47;;;;;;;5.10;1.25;;;;;;;;;;5051306;28;20029;-72
2023/06/04 13:11:13;;;;;;;4.40;1.20;;;;;;;;;;5050278;28;20043;-74
2023/06/04 13:13:39;;;;;;;3.88;1.30;;;;;;;;;;5047923;28;20489;-72
2023/06/04 13:16:05;;;;;;;3.88;2.00;;;;;;;;;;5051162;28;20025;-71
2023/06/04 13:18:31;;;;;;;3.53;1.10;;;;;;;;;;5050554;28;20036;-70
2023/06/04 13:20:57;;;;;;;6.50;1.30;;;;;;;;;;5050730;28;20116;-71
2023/06/04 13:23:23;;;;;;;3.75;1.35;;;;;;;;;;5050376;28;20191;-70
2023/06/04 13:25:49;;;;;;;3.33;1.25;;;;;;;;;;5052172;28;20036;-70
2023/06/04 13:28:17;;;;;;;3.85;1.17;;;;;;;;;;5050517;28;20650;-70
2023/06/04 13:30:43;;;;;;;2.95;1.27;;;;;;;;;;5050355;28;20051;-73
2023/06/04 13:33:09;;;;;;;4.28;1.35;;;;;;;;;;5049666;28;20058;-73
2023/06/04 13:35:35;;;;;;;2.80;1.23;;;;;;;;;;5050423;28;20028;-71
2023/06/04 13:38:02;;;;;;;2.45;1.20;;;;;;;;;;5051810;28;20032;-74
2023/06/04 13:40:28;;;;;;;4.43;1.40;;;;;;;;;;5050373;28;20264;-75
2023/06/04 13:42:55;;;;;;;1.80;1.13;;;;;;;;;;5036431;28;20036;-71
2023/06/04 13:45:21;;;;;;;2.95;1.00;;;;;;;;;;5049974;28;20171;-72
2023/06/04 13:47:49;;;;;;;18.15;1.60;;;;;;;;;;5050316;28;20075;-72
2023/06/04 13:50:16;;;;;;;9.38;4.03;;;;;;;;;;5050260;28;20036;-72
2023/06/04 13:52:42;;;;;;;5.43;2.72;;;;;;;;;;5051218;28;20138;-74
2023/06/04 13:55:08;;;;;;;4.13;1.25;;;;;;;;;;5050324;28;20027;-72
2023/06/04 13:57:34;;;;;;;8.23;1.40;;;;;;;;;;5051501;28;20428;-73
2023/06/04 14:00:00;;;;;;;4.00;1.60;;;;;;;;;;5049520;28;20047;-72
2023/06/04 14:02:26;;;;;;;3.33;1.20;;;;;;;;;;5050321;28;20074;-75
2023/06/04 14:04:54;;;;;;;2.55;1.17;;;;;;;;;;5046980;28;20028;-76
2023/06/04 14:07:20;;;;;;;2.22;1.10;;;;;;;;;;5047487;28;20029;-75
2023/06/04 14:09:48;;;;;;;6.35;1.70;;;;;;;;;;5043877;28;20044;-71
2023/06/04 14:12:17;;;;;;;3.25;1.20;;;;;;;;;;5049596;28;20044;-72
2023/06/04 14:14:43;;;;;;;5.63;1.38;;;;;;;;;;5050667;28;20175;-75
2023/06/04 14:17:10;;;;;;;2.88;1.42;;;;;;;;;;5047603;28;20036;-72
2023/06/04 14:19:36;;;;;;;5.55;3.88;;;;;;;;;;5050906;28;20039;-71
2023/06/04 14:22:05;;;;;;;2.28;1.38;;;;;;;;;;5049562;28;20033;-71
2023/06/04 14:24:31;;;;;;;3.83;1.48;;;;;;;;;;5036160;28;20028;-74
2023/06/04 14:26:57;;;;;;;2.60;1.27;;;;;;;;;;5048493;28;20013;-74
2023/06/04 14:29:23;;;;;;;3.35;1.10;;;;;;;;;;5049688;28;20033;-73
2023/06/04 14:31:49;;;;;;;3.70;1.20;;;;;;;;;;5050828;28;20025;-72
2023/06/04 14:34:15;;;;;;;5.15;1.50;;;;;;;;;;5048372;28;20024;-74
2023/06/04 14:36:41;;;;;;;1.73;0.93;;;;;;;;;;5050770;28;20037;-71
2023/06/04 14:39:07;;;;;;;1.95;1.10;;;;;;;;;;5051971;28;20078;-71
2023/06/04 14:41:33;;;;;;;3.60;1.40;;;;;;;;;;5050939;28;20053;-72